Time;durP1;ratioP1;P1;durP2;ratioP2;P2;SDS_P1;SDS_P2;PMS_P1;PMS_P2;Temp;Humidity;BMP_temperature;BMP_pressure;BME280_temperature;BME280_humidity;BME280_pressure;Samples;Min_cycle;Max_cycle;Signal;HPM_P1;HPM_P2
2020/12/26 00:02:21;;;;;;;0.20;0.20;;;;;;;;;;5012366;28;20205;-76
2020/12/26 00:04:48;;;;;;;0.20;0.20;;;;;;;;;;5011195;28;20228;-77
2020/12/26 00:07:14;;;;;;;0.20;0.20;;;;;;;;;;5009336;28;20433;-76
2020/12/26 00:09:40;;;;;;;0.30;0.30;;;;;;;;;;5014323;28;20443;-77
2020/12/26 00:12:07;;;;;;;0.20;0.20;;;;;;;;;;5013581;28;20492;-76
2020/12/26 00:14:33;;;;;;;0.20;0.20;;;;;;;;;;5001136;28;20496;-76
2020/12/26 00:17:02;;;;;;;0.20;0.20;;;;;;;;;;4999246;28;20233;-76
2020/12/26 00:19:29;;;;;;;0.20;0.20;;;;;;;;;;5018666;28;20210;-76
2020/12/26 00:21:56;;;;;;;0.20;0.20;;;;;;;;;;5002302;28;20228;-76
2020/12/26 00:24:22;;;;;;;0.20;0.20;;;;;;;;;;5020261;28;20257;-76
2020/12/26 00:26:48;;;;;;;0.20;0.20;;;;;;;;;;5021022;28;20201;-77
2020/12/26 00:29:15;;;;;;;0.20;0.20;;;;;;;;;;4996193;28;20225;-76
2020/12/26 00:31:41;;;;;;;0.20;0.20;;;;;;;;;;5014623;28;20588;-76
2020/12/26 00:34:08;;;;;;;0.20;0.20;;;;;;;;;;5019014;28;20194;-76
2020/12/26 00:36:37;;;;;;;0.20;0.20;;;;;;;;;;5012461;28;20262;-76
2020/12/26 00:39:04;;;;;;;0.20;0.20;;;;;;;;;;5014185;28;20281;-76
2020/12/26 00:41:30;;;;;;;0.30;0.30;;;;;;;;;;5019946;28;20432;-76
2020/12/26 00:43:56;;;;;;;0.20;0.20;;;;;;;;;;5012441;28;20246;-76
2020/12/26 00:46:22;;;;;;;0.30;0.30;;;;;;;;;;5031413;28;20586;-77
2020/12/26 00:48:49;;;;;;;0.20;0.20;;;;;;;;;;5031427;28;20207;-77
2020/12/26 00:51:15;;;;;;;0.20;0.20;;;;;;;;;;5012061;28;20197;-76
2020/12/26 00:53:42;;;;;;;0.30;0.30;;;;;;;;;;5020957;28;20240;-76
2020/12/26 00:56:09;;;;;;;0.20;0.20;;;;;;;;;;5000608;28;20233;-76
2020/12/26 00:58:35;;;;;;;0.30;0.30;;;;;;;;;;5009428;28;20293;-76
2020/12/26 01:01:02;;;;;;;0.20;0.20;;;;;;;;;;5010784;28;20285;-76
2020/12/26 01:03:28;;;;;;;0.30;0.30;;;;;;;;;;5007918;28;20428;-76
2020/12/26 01:05:55;;;;;;;8.57;2.20;;;;;;;;;;5011835;28;20228;-76
2020/12/26 01:08:21;;;;;;;0.20;0.20;;;;;;;;;;5004027;28;20205;-76
2020/12/26 01:10:48;;;;;;;0.20;0.20;;;;;;;;;;5020749;28;20201;-76
2020/12/26 01:13:17;;;;;;;0.20;0.20;;;;;;;;;;5003339;28;20481;-76
2020/12/26 01:15:43;;;;;;;0.77;0.77;;;;;;;;;;5018455;28;20201;-77
2020/12/26 01:18:09;;;;;;;0.23;0.23;;;;;;;;;;5019747;28;20202;-76
2020/12/26 01:20:36;;;;;;;0.20;0.20;;;;;;;;;;4997478;28;20202;-76
2020/12/26 01:23:02;;;;;;;0.20;0.20;;;;;;;;;;5018075;28;20516;-76
2020/12/26 01:25:29;;;;;;;0.30;0.30;;;;;;;;;;5003646;28;20208;-77
2020/12/26 01:27:56;;;;;;;0.20;0.20;;;;;;;;;;5003624;28;20391;-76
2020/12/26 01:30:22;;;;;;;2.57;2.47;;;;;;;;;;4986832;28;20209;-77
2020/12/26 01:32:49;;;;;;;0.20;0.20;;;;;;;;;;5021374;28;20202;-76
2020/12/26 01:35:16;;;;;;;0.27;0.27;;;;;;;;;;4992756;28;20209;-76
2020/12/26 01:37:42;;;;;;;0.20;0.20;;;;;;;;;;5013359;28;20202;-77
2020/12/26 01:40:10;;;;;;;0.20;0.20;;;;;;;;;;4998018;28;20205;-77
2020/12/26 01:42:37;;;;;;;0.20;0.20;;;;;;;;;;5018307;28;20279;-77
2020/12/26 01:45:04;;;;;;;0.30;0.30;;;;;;;;;;5003773;28;20245;-77
2020/12/26 01:47:31;;;;;;;0.20;0.20;;;;;;;;;;5013216;28;20208;-77
2020/12/26 01:49:58;;;;;;;0.30;0.30;;;;;;;;;;5005272;28;20202;-77
2020/12/26 01:52:24;;;;;;;0.30;0.30;;;;;;;;;;5006702;28;20198;-76
2020/12/26 01:54:52;;;;;;;0.20;0.20;;;;;;;;;;5023320;28;20197;-77
2020/12/26 01:57:19;;;;;;;0.20;0.20;;;;;;;;;;5037182;28;20212;-77
2020/12/26 01:59:45;;;;;;;0.30;0.30;;;;;;;;;;5003427;28;20202;-76
2020/12/26 02:02:13;;;;;;;0.20;0.20;;;;;;;;;;4995399;28;20208;-77
2020/12/26 02:04:39;;;;;;;0.30;0.30;;;;;;;;;;5034491;28;20240;-76
2020/12/26 02:07:05;;;;;;;0.30;0.30;;;;;;;;;;5021214;28;20493;-77
2020/12/26 02:09:32;;;;;;;0.20;0.20;;;;;;;;;;5039644;28;20296;-77
2020/12/26 02:11:59;;;;;;;0.20;0.20;;;;;;;;;;5010297;28;20259;-77
2020/12/26 02:14:25;;;;;;;0.20;0.20;;;;;;;;;;5003466;28;20208;-77
2020/12/26 02:16:52;;;;;;;0.30;0.30;;;;;;;;;;5020742;28;20198;-76
2020/12/26 02:19:20;;;;;;;0.20;0.20;;;;;;;;;;5039661;28;20202;-76
2020/12/26 02:21:47;;;;;;;0.20;0.20;;;;;;;;;;5020874;28;20205;-77
2020/12/26 02:24:14;;;;;;;0.20;0.20;;;;;;;;;;5007343;28;20551;-77
2020/12/26 02:26:41;;;;;;;0.30;0.30;;;;;;;;;;5003018;28;20238;-77
2020/12/26 02:29:08;;;;;;;0.20;0.20;;;;;;;;;;5010836;28;20551;-77
2020/12/26 02:31:34;;;;;;;0.27;0.27;;;;;;;;;;5021506;28;20228;-77
2020/12/26 02:34:01;;;;;;;0.30;0.30;;;;;;;;;;5012544;28;20205;-77
2020/12/26 02:36:27;;;;;;;0.20;0.20;;;;;;;;;;5017670;28;20229;-77
2020/12/26 02:38:53;;;;;;;0.27;0.27;;;;;;;;;;5015474;28;20205;-76
2020/12/26 02:41:21;;;;;;;0.30;0.30;;;;;;;;;;5022913;28;20201;-76
2020/12/26 02:43:47;;;;;;;0.30;0.30;;;;;;;;;;5004267;28;20487;-76
2020/12/26 02:46:14;;;;;;;0.20;0.20;;;;;;;;;;5020750;28;20249;-77
2020/12/26 02:48:40;;;;;;;0.20;0.20;;;;;;;;;;5003254;28;20390;-77
2020/12/26 02:51:07;;;;;;;0.20;0.20;;;;;;;;;;5005452;28;20233;-78
2020/12/26 02:53:33;;;;;;;0.20;0.20;;;;;;;;;;4997732;28;20208;-77
2020/12/26 02:55:59;;;;;;;0.20;0.20;;;;;;;;;;5037095;28;20205;-76
2020/12/26 02:58:27;;;;;;;0.60;0.60;;;;;;;;;;5020756;28;20312;-77
2020/12/26 03:00:53;;;;;;;0.20;0.20;;;;;;;;;;5021508;28;20292;-77
2020/12/26 03:03:19;;;;;;;0.23;0.23;;;;;;;;;;5001317;28;20317;-77
2020/12/26 03:05:45;;;;;;;0.20;0.20;;;;;;;;;;4997517;28;20312;-77
2020/12/26 03:08:12;;;;;;;0.20;0.20;;;;;;;;;;5038257;28;20205;-77
2020/12/26 03:10:38;;;;;;;0.27;0.27;;;;;;;;;;5021792;28;20239;-77
2020/12/26 03:13:05;;;;;;;0.20;0.20;;;;;;;;;;5004758;28;20197;-77
2020/12/26 03:15:32;;;;;;;0.30;0.30;;;;;;;;;;5007464;28;20217;-77
2020/12/26 03:17:58;;;;;;;0.20;0.20;;;;;;;;;;5037086;28;20259;-77
2020/12/26 03:20:24;;;;;;;0.20;0.20;;;;;;;;;;5031663;28;20239;-77
2020/12/26 03:22:51;;;;;;;0.20;0.20;;;;;;;;;;5010691;28;20296;-77
2020/12/26 03:25:19;;;;;;;0.20;0.20;;;;;;;;;;5020963;28;20197;-77
2020/12/26 03:27:45;;;;;;;0.20;0.20;;;;;;;;;;5020538;28;20205;-77
2020/12/26 03:30:11;;;;;;;0.20;0.20;;;;;;;;;;5038216;28;20252;-78
2020/12/26 03:32:39;;;;;;;0.30;0.30;;;;;;;;;;5016043;28;20202;-77
2020/12/26 03:35:06;;;;;;;0.30;0.30;;;;;;;;;;5000734;28;20272;-78
2020/12/26 03:37:34;;;;;;;0.30;0.30;;;;;;;;;;4986529;28;20236;-77
2020/12/26 03:40:00;;;;;;;0.20;0.20;;;;;;;;;;5020728;28;20205;-78
2020/12/26 03:42:27;;;;;;;0.20;0.20;;;;;;;;;;5002948;28;20208;-77
2020/12/26 03:44:53;;;;;;;0.23;0.23;;;;;;;;;;5000605;28;20276;-78
2020/12/26 03:47:20;;;;;;;0.30;0.30;;;;;;;;;;5007261;28;20202;-78
2020/12/26 03:49:47;;;;;;;0.30;0.30;;;;;;;;;;5001720;28;20209;-77
2020/12/26 03:52:13;;;;;;;0.30;0.30;;;;;;;;;;5004045;28;20228;-77
2020/12/26 03:54:40;;;;;;;0.20;0.20;;;;;;;;;;5008698;28;20194;-77
2020/12/26 03:57:06;;;;;;;0.20;0.20;;;;;;;;;;4997563;28;20225;-77
2020/12/26 03:59:33;;;;;;;0.20;0.20;;;;;;;;;;5022284;28;20233;-77
2020/12/26 04:01:59;;;;;;;0.30;0.30;;;;;;;;;;5020611;28;20201;-77
2020/12/26 04:04:26;;;;;;;0.30;0.30;;;;;;;;;;5005085;28;20259;-78
2020/12/26 04:06:53;;;;;;;0.30;0.30;;;;;;;;;;5004383;28;20212;-77
2020/12/26 04:09:19;;;;;;;0.30;0.30;;;;;;;;;;5016542;28;20203;-78
2020/12/26 04:11:46;;;;;;;0.20;0.20;;;;;;;;;;5003738;28;20493;-77
2020/12/26 04:14:13;;;;;;;0.20;0.20;;;;;;;;;;5021751;28;20197;-77
2020/12/26 04:16:39;;;;;;;0.30;0.30;;;;;;;;;;5002560;28;20202;-77
2020/12/26 04:19:06;;;;;;;0.30;0.30;;;;;;;;;;5001589;28;20276;-77
2020/12/26 04:21:32;;;;;;;0.30;0.30;;;;;;;;;;5015625;28;20205;-77
2020/12/26 04:24:00;;;;;;;0.20;0.20;;;;;;;;;;5004270;28;20221;-78
2020/12/26 04:26:26;;;;;;;0.27;0.27;;;;;;;;;;5008982;28;20249;-78
2020/12/26 04:28:53;;;;;;;0.30;0.30;;;;;;;;;;5003284;28;20204;-78
2020/12/26 04:31:19;;;;;;;0.30;0.30;;;;;;;;;;5021081;28;20232;-77
2020/12/26 04:33:45;;;;;;;0.30;0.30;;;;;;;;;;5011334;28;20404;-78
2020/12/26 04:36:12;;;;;;;0.20;0.20;;;;;;;;;;5024993;28;20213;-78
2020/12/26 04:38:38;;;;;;;0.20;0.20;;;;;;;;;;5007243;28;20208;-77
2020/12/26 04:41:05;;;;;;;0.30;0.30;;;;;;;;;;5020429;28;20197;-77
2020/12/26 04:43:32;;;;;;;0.20;0.20;;;;;;;;;;5000023;28;20232;-77
2020/12/26 04:45:59;;;;;;;0.20;0.20;;;;;;;;;;5018059;28;20248;-78
2020/12/26 04:48:26;;;;;;;0.30;0.30;;;;;;;;;;5000595;28;20202;-77
2020/12/26 04:50:56;;;;;;;0.20;0.20;;;;;;;;;;5016524;28;20209;-77
2020/12/26 04:53:29;;;;;;;0.20;0.20;;;;;;;;;;5035553;28;20201;-77
2020/12/26 04:55:56;;;;;;;0.30;0.30;;;;;;;;;;5010579;28;20216;-77
2020/12/26 04:58:24;;;;;;;0.20;0.20;;;;;;;;;;5018719;28;20269;-77
2020/12/26 05:00:50;;;;;;;0.20;0.20;;;;;;;;;;5008820;28;20273;-77
2020/12/26 05:03:17;;;;;;;0.30;0.30;;;;;;;;;;5020776;28;20221;-77
2020/12/26 05:05:44;;;;;;;0.20;0.20;;;;;;;;;;5001259;28;20202;-77
2020/12/26 05:08:12;;;;;;;0.20;0.20;;;;;;;;;;5015533;28;20213;-77
2020/12/26 05:10:39;;;;;;;0.20;0.20;;;;;;;;;;5020549;28;20204;-77
2020/12/26 05:13:06;;;;;;;0.20;0.20;;;;;;;;;;5016666;28;20193;-77
2020/12/26 05:15:34;;;;;;;0.20;0.20;;;;;;;;;;5023465;28;20205;-77
2020/12/26 05:18:01;;;;;;;0.23;0.23;;;;;;;;;;5006576;28;20241;-77
2020/12/26 05:20:28;;;;;;;0.20;0.20;;;;;;;;;;5024530;28;20204;-77
2020/12/26 05:23:06;;;;;;;0.30;0.30;;;;;;;;;;5007484;28;20252;-77
2020/12/26 05:25:32;;;;;;;0.27;0.27;;;;;;;;;;5023560;28;20202;-78
2020/12/26 05:28:07;;;;;;;0.20;0.20;;;;;;;;;;5011308;28;20497;-77
2020/12/26 05:30:36;;;;;;;0.30;0.30;;;;;;;;;;5008627;28;20220;-76
2020/12/26 05:33:04;;;;;;;0.27;0.27;;;;;;;;;;5000863;28;20201;-78
2020/12/26 05:35:35;;;;;;;0.23;0.23;;;;;;;;;;5004292;28;20240;-77
2020/12/26 05:38:10;;;;;;;0.20;0.20;;;;;;;;;;5017113;28;20228;-77
2020/12/26 05:40:41;;;;;;;0.30;0.30;;;;;;;;;;5017385;28;20201;-77
2020/12/26 05:43:08;;;;;;;0.30;0.30;;;;;;;;;;5023107;28;20293;-78
2020/12/26 05:45:39;;;;;;;0.20;0.20;;;;;;;;;;5004672;28;20480;-77
2020/12/26 05:48:09;;;;;;;0.20;0.20;;;;;;;;;;5024975;28;20217;-77
2020/12/26 05:50:35;;;;;;;0.30;0.30;;;;;;;;;;5039792;28;20208;-77
2020/12/26 05:53:01;;;;;;;0.63;0.63;;;;;;;;;;5039637;28;20193;-77
2020/12/26 05:55:35;;;;;;;0.20;0.20;;;;;;;;;;5023808;28;20337;-77
2020/12/26 05:58:02;;;;;;;0.20;0.20;;;;;;;;;;5037605;28;20237;-77
2020/12/26 06:00:32;;;;;;;0.30;0.30;;;;;;;;;;5022250;28;20197;-76
2020/12/26 06:02:59;;;;;;;0.20;0.20;;;;;;;;;;5007706;28;20235;-77
2020/12/26 06:05:26;;;;;;;0.30;0.30;;;;;;;;;;5025770;28;20209;-76
2020/12/26 06:07:53;;;;;;;0.20;0.20;;;;;;;;;;5009407;28;20217;-77
2020/12/26 06:10:20;;;;;;;0.20;0.20;;;;;;;;;;5002648;28;20209;-77
2020/12/26 06:12:46;;;;;;;0.20;0.20;;;;;;;;;;5023969;28;20399;-77
2020/12/26 06:15:14;;;;;;;0.27;0.27;;;;;;;;;;5017031;28;20229;-77
2020/12/26 06:17:41;;;;;;;0.30;0.30;;;;;;;;;;5035503;28;20400;-77
2020/12/26 06:20:09;;;;;;;0.20;0.20;;;;;;;;;;5002882;28;20383;-77
2020/12/26 06:22:43;;;;;;;0.30;0.30;;;;;;;;;;5006671;28;20209;-77
2020/12/26 06:25:10;;;;;;;0.20;0.20;;;;;;;;;;5022825;28;20206;-77
2020/12/26 06:27:37;;;;;;;0.30;0.30;;;;;;;;;;5039136;28;20446;-77
2020/12/26 06:30:03;;;;;;;0.60;0.60;;;;;;;;;;5022007;28;20319;-77
2020/12/26 06:32:29;;;;;;;0.20;0.20;;;;;;;;;;5030714;28;20208;-77
2020/12/26 06:34:56;;;;;;;0.20;0.20;;;;;;;;;;5023145;28;20361;-77
2020/12/26 06:37:23;;;;;;;0.27;0.27;;;;;;;;;;4996912;28;20540;-77
2020/12/26 06:39:50;;;;;;;0.23;0.23;;;;;;;;;;5019586;28;20259;-77
2020/12/26 06:42:17;;;;;;;0.30;0.30;;;;;;;;;;4999006;28;20260;-78
2020/12/26 06:44:44;;;;;;;0.23;0.23;;;;;;;;;;5024155;28;20248;-77
2020/12/26 06:47:25;;;;;;;0.30;0.30;;;;;;;;;;5018791;28;20201;-76
2020/12/26 06:49:52;;;;;;;0.30;0.30;;;;;;;;;;5036648;28;20263;-77
2020/12/26 06:52:38;;;;;;;0.30;0.30;;;;;;;;;;5024522;28;20233;-77
2020/12/26 06:55:05;;;;;;;0.30;0.30;;;;;;;;;;5014607;28;20400;-77
2020/12/26 06:57:38;;;;;;;0.30;0.30;;;;;;;;;;5017689;28;20205;-76
2020/12/26 07:00:22;;;;;;;0.30;0.30;;;;;;;;;;5022553;28;20207;-77
2020/12/26 07:02:49;;;;;;;0.20;0.20;;;;;;;;;;5009509;28;20503;-76
2020/12/26 07:05:30;;;;;;;0.30;0.30;;;;;;;;;;5019256;28;20202;-77
2020/12/26 07:07:57;;;;;;;0.30;0.30;;;;;;;;;;5025390;28;20221;-77
2020/12/26 07:10:32;;;;;;;0.30;0.30;;;;;;;;;;5010729;28;20205;-77
2020/12/26 07:12:59;;;;;;;0.30;0.30;;;;;;;;;;5028832;28;20213;-76
2020/12/26 07:15:31;;;;;;;0.30;0.30;;;;;;;;;;5022028;28;20204;-77
2020/12/26 07:17:57;;;;;;;0.30;0.30;;;;;;;;;;5033037;28;20248;-77
2020/12/26 07:20:27;;;;;;;0.30;0.30;;;;;;;;;;5036880;28;20236;-77
2020/12/26 07:23:08;;;;;;;0.30;0.30;;;;;;;;;;5024258;28;20269;-76
2020/12/26 07:25:35;;;;;;;0.30;0.30;;;;;;;;;;5012665;28;20400;-77
2020/12/26 07:28:02;;;;;;;0.30;0.30;;;;;;;;;;5005288;28;20447;-76
2020/12/26 07:30:33;;;;;;;0.30;0.30;;;;;;;;;;4992363;28;20224;-77
2020/12/26 07:32:59;;;;;;;0.30;0.30;;;;;;;;;;5025020;28;20202;-77
2020/12/26 07:35:30;;;;;;;0.30;0.30;;;;;;;;;;4996291;28;20531;-77
2020/12/26 07:37:58;;;;;;;0.33;0.33;;;;;;;;;;5010484;28;20209;-77
2020/12/26 07:40:24;;;;;;;0.30;0.30;;;;;;;;;;5001721;28;20201;-76
2020/12/26 07:42:52;;;;;;;0.70;0.70;;;;;;;;;;5030785;28;20216;-77
2020/12/26 07:45:19;;;;;;;0.30;0.30;;;;;;;;;;5018447;28;20244;-76
2020/12/26 07:47:46;;;;;;;1.33;1.33;;;;;;;;;;5035776;28;20304;-77
2020/12/26 07:50:14;;;;;;;0.30;0.30;;;;;;;;;;5038749;28;20247;-77
2020/12/26 07:52:44;;;;;;;0.30;0.30;;;;;;;;;;5017819;28;20201;-76
2020/12/26 07:55:11;;;;;;;0.47;0.47;;;;;;;;;;5013239;28;20197;-77
2020/12/26 07:57:37;;;;;;;0.70;0.70;;;;;;;;;;5007502;28;20489;-76
2020/12/26 08:00:05;;;;;;;0.30;0.30;;;;;;;;;;5020754;28;20208;-77
2020/12/26 08:02:31;;;;;;;0.30;0.30;;;;;;;;;;5009883;28;20215;-76
2020/12/26 08:04:58;;;;;;;0.30;0.30;;;;;;;;;;5022741;28;20248;-77
2020/12/26 08:07:24;;;;;;;0.30;0.30;;;;;;;;;;5009141;28;20201;-77
2020/12/26 08:09:51;;;;;;;0.30;0.30;;;;;;;;;;5014749;28;20276;-77
2020/12/26 08:12:17;;;;;;;0.30;0.30;;;;;;;;;;5021399;28;20228;-77
2020/12/26 08:14:44;;;;;;;0.27;0.27;;;;;;;;;;5037352;28;20469;-77
2020/12/26 08:17:11;;;;;;;0.30;0.30;;;;;;;;;;5010965;28;20485;-76
2020/12/26 08:19:38;;;;;;;0.30;0.30;;;;;;;;;;5016973;28;20400;-76
2020/12/26 08:22:04;;;;;;;0.30;0.30;;;;;;;;;;5019941;28;20515;-77
2020/12/26 08:24:31;;;;;;;0.30;0.30;;;;;;;;;;5001087;28;20232;-77
2020/12/26 08:26:57;;;;;;;0.60;0.60;;;;;;;;;;5020223;28;20239;-77
2020/12/26 08:29:26;;;;;;;0.30;0.30;;;;;;;;;;5012665;28;20496;-77
2020/12/26 08:31:55;;;;;;;0.50;0.50;;;;;;;;;;5012793;28;20205;-77
2020/12/26 08:34:30;;;;;;;0.30;0.30;;;;;;;;;;5010703;28;20201;-77
2020/12/26 08:36:56;;;;;;;0.43;0.43;;;;;;;;;;5009171;28;20513;-75
2020/12/26 08:39:24;;;;;;;2.47;2.33;;;;;;;;;;5027058;28;20209;-76
2020/12/26 08:41:53;;;;;;;0.30;0.30;;;;;;;;;;5016952;28;20211;-76
2020/12/26 08:44:20;;;;;;;0.30;0.30;;;;;;;;;;5018282;28;20592;-76
2020/12/26 08:46:46;;;;;;;0.30;0.30;;;;;;;;;;5013179;28;20201;-77
2020/12/26 08:49:13;;;;;;;0.30;0.30;;;;;;;;;;5022924;28;20203;-76
2020/12/26 08:51:40;;;;;;;0.30;0.30;;;;;;;;;;5009815;28;20213;-76
2020/12/26 08:54:16;;;;;;;0.87;0.87;;;;;;;;;;5031334;28;20202;-77
2020/12/26 08:56:42;;;;;;;0.30;0.30;;;;;;;;;;5019803;28;20240;-77
2020/12/26 08:59:08;;;;;;;0.30;0.30;;;;;;;;;;5017780;28;20232;-77
2020/12/26 09:01:35;;;;;;;0.83;0.80;;;;;;;;;;5002703;28;20212;-77
2020/12/26 09:04:01;;;;;;;0.30;0.30;;;;;;;;;;5017816;28;20221;-76
2020/12/26 09:06:31;;;;;;;0.20;0.20;;;;;;;;;;5027222;28;20200;-75
2020/12/26 09:08:58;;;;;;;0.30;0.30;;;;;;;;;;5022132;28;20208;-74
2020/12/26 09:11:29;;;;;;;0.30;0.30;;;;;;;;;;5007410;28;20275;-74
2020/12/26 09:13:56;;;;;;;0.30;0.30;;;;;;;;;;5012662;28;20248;-74
2020/12/26 09:16:22;;;;;;;0.20;0.20;;;;;;;;;;5012258;28;20212;-73
2020/12/26 09:18:49;;;;;;;0.30;0.30;;;;;;;;;;5024542;28;20276;-74
2020/12/26 09:21:23;;;;;;;0.30;0.30;;;;;;;;;;5027446;28;20480;-74
2020/12/26 09:23:50;;;;;;;0.30;0.30;;;;;;;;;;5009483;28;20253;-73
2020/12/26 09:26:18;;;;;;;0.20;0.20;;;;;;;;;;5015006;28;20588;-73
2020/12/26 09:28:50;;;;;;;0.30;0.30;;;;;;;;;;5011187;28;20212;-73
2020/12/26 09:31:17;;;;;;;0.30;0.30;;;;;;;;;;5026027;28;20208;-73
2020/12/26 09:33:43;;;;;;;0.20;0.20;;;;;;;;;;5030600;28;20308;-73
2020/12/26 09:36:11;;;;;;;0.30;0.30;;;;;;;;;;5032850;28;20229;-73
2020/12/26 09:38:37;;;;;;;0.20;0.20;;;;;;;;;;5010255;28;20213;-73
2020/12/26 09:41:11;;;;;;;0.23;0.23;;;;;;;;;;5001428;28;20208;-73
2020/12/26 09:43:38;;;;;;;0.60;0.60;;;;;;;;;;5036488;28;20255;-74
2020/12/26 09:46:05;;;;;;;0.30;0.30;;;;;;;;;;5002133;28;20416;-73
2020/12/26 09:48:32;;;;;;;0.50;0.50;;;;;;;;;;5001925;28;20229;-73
2020/12/26 09:50:58;;;;;;;0.67;0.67;;;;;;;;;;5004245;28;20228;-73
2020/12/26 09:53:25;;;;;;;0.30;0.30;;;;;;;;;;4994393;28;20194;-73
2020/12/26 09:55:51;;;;;;;0.80;0.80;;;;;;;;;;5005414;28;20252;-73
2020/12/26 09:58:18;;;;;;;0.30;0.30;;;;;;;;;;5007034;28;20197;-74
2020/12/26 10:00:45;;;;;;;0.30;0.30;;;;;;;;;;4996699;28;20239;-74
2020/12/26 10:03:12;;;;;;;0.30;0.30;;;;;;;;;;5005402;28;20208;-73
2020/12/26 10:05:38;;;;;;;0.30;0.30;;;;;;;;;;5003135;28;20244;-73
2020/12/26 10:08:04;;;;;;;1.07;1.07;;;;;;;;;;5018166;28;20209;-73
2020/12/26 10:10:31;;;;;;;0.30;0.30;;;;;;;;;;5019810;28;20225;-74
2020/12/26 10:12:57;;;;;;;0.30;0.30;;;;;;;;;;5017406;28;20236;-73
2020/12/26 10:15:23;;;;;;;0.30;0.30;;;;;;;;;;5018803;28;20202;-73
2020/12/26 10:17:51;;;;;;;0.20;0.20;;;;;;;;;;4999478;28;20519;-73
2020/12/26 10:20:17;;;;;;;0.20;0.20;;;;;;;;;;4988571;28;20503;-74
2020/12/26 10:22:44;;;;;;;0.30;0.30;;;;;;;;;;5012152;28;20240;-73
2020/12/26 10:25:10;;;;;;;0.30;0.30;;;;;;;;;;5021760;28;20582;-73
2020/12/26 10:27:37;;;;;;;1.40;1.40;;;;;;;;;;5006052;28;20225;-74
2020/12/26 10:30:04;;;;;;;0.30;0.30;;;;;;;;;;4993714;28;20280;-74
2020/12/26 10:32:30;;;;;;;0.30;0.30;;;;;;;;;;5014944;28;20272;-73
2020/12/26 10:34:57;;;;;;;0.30;0.30;;;;;;;;;;5010955;28;20251;-73
2020/12/26 10:37:24;;;;;;;0.27;0.27;;;;;;;;;;5028754;28;20209;-73
2020/12/26 10:39:50;;;;;;;0.20;0.20;;;;;;;;;;5014821;28;20228;-73
2020/12/26 10:42:16;;;;;;;0.43;0.43;;;;;;;;;;5003995;28;20488;-74
2020/12/26 10:44:43;;;;;;;0.20;0.20;;;;;;;;;;5014479;28;20230;-75
2020/12/26 10:47:09;;;;;;;0.30;0.30;;;;;;;;;;5012045;28;20497;-73
2020/12/26 10:49:36;;;;;;;0.20;0.20;;;;;;;;;;5013906;28;20213;-74
2020/12/26 10:52:03;;;;;;;0.20;0.20;;;;;;;;;;5011599;28;20241;-69
2020/12/26 10:54:30;;;;;;;0.30;0.30;;;;;;;;;;5016956;28;20260;-73
2020/12/26 10:56:56;;;;;;;0.30;0.30;;;;;;;;;;5001974;28;20428;-71
2020/12/26 10:59:22;;;;;;;0.30;0.30;;;;;;;;;;5018674;28;20512;-75
2020/12/26 11:01:49;;;;;;;0.30;0.30;;;;;;;;;;5028653;28;20202;-74
2020/12/26 11:04:15;;;;;;;0.30;0.30;;;;;;;;;;4999957;28;20404;-74
2020/12/26 11:06:41;;;;;;;0.30;0.30;;;;;;;;;;5014639;28;20229;-75
2020/12/26 11:09:08;;;;;;;0.30;0.30;;;;;;;;;;5013356;28;20209;-73
2020/12/26 11:11:35;;;;;;;0.30;0.30;;;;;;;;;;4999405;28;20229;-74
2020/12/26 11:14:01;;;;;;;0.23;0.23;;;;;;;;;;5016099;28;20231;-74
2020/12/26 11:16:28;;;;;;;0.40;0.40;;;;;;;;;;5015470;28;20203;-72
2020/12/26 11:18:54;;;;;;;0.30;0.30;;;;;;;;;;5010197;28;20276;-77
2020/12/26 11:21:21;;;;;;;0.53;0.53;;;;;;;;;;5019320;28;20202;-70
2020/12/26 11:23:47;;;;;;;0.20;0.20;;;;;;;;;;5009257;28;20300;-76
2020/12/26 11:26:15;;;;;;;0.30;0.30;;;;;;;;;;5005514;28;20433;-72
2020/12/26 11:28:41;;;;;;;0.23;0.23;;;;;;;;;;5002662;28;20378;-73
2020/12/26 11:31:07;;;;;;;0.20;0.20;;;;;;;;;;4997396;28;20209;-70
2020/12/26 11:33:34;;;;;;;0.30;0.30;;;;;;;;;;5032685;28;20226;-74
2020/12/26 11:36:00;;;;;;;0.20;0.20;;;;;;;;;;5018108;28;20224;-74
2020/12/26 11:38:27;;;;;;;0.20;0.20;;;;;;;;;;5001588;28;20201;-74
2020/12/26 11:40:54;;;;;;;1.73;1.73;;;;;;;;;;5003107;28;20197;-73
2020/12/26 11:43:22;;;;;;;0.30;0.30;;;;;;;;;;5004381;28;20228;-73
2020/12/26 11:45:49;;;;;;;0.30;0.30;;;;;;;;;;5025800;28;20229;-72
2020/12/26 11:48:15;;;;;;;0.20;0.20;;;;;;;;;;5006524;28;20205;-75
2020/12/26 11:50:42;;;;;;;0.20;0.20;;;;;;;;;;5007399;28;20212;-72
2020/12/26 11:53:08;;;;;;;1.60;1.50;;;;;;;;;;5001839;28;20202;-74
2020/12/26 11:55:34;;;;;;;0.30;0.30;;;;;;;;;;5014389;28;20400;-73
2020/12/26 11:58:01;;;;;;;0.23;0.23;;;;;;;;;;5007363;28;20228;-74
2020/12/26 12:00:29;;;;;;;0.30;0.30;;;;;;;;;;5006404;28;20193;-72
2020/12/26 12:02:55;;;;;;;0.30;0.30;;;;;;;;;;5007668;28;20204;-75
2020/12/26 12:05:21;;;;;;;0.20;0.20;;;;;;;;;;5037341;28;20294;-74
2020/12/26 12:07:47;;;;;;;0.20;0.20;;;;;;;;;;5004016;28;20303;-75
2020/12/26 12:10:14;;;;;;;0.60;0.60;;;;;;;;;;5022726;28;20252;-75
2020/12/26 12:12:41;;;;;;;0.20;0.20;;;;;;;;;;5004925;28;20508;-75
2020/12/26 12:15:07;;;;;;;0.40;0.40;;;;;;;;;;5024650;28;20263;-75
2020/12/26 12:17:34;;;;;;;1.27;1.27;;;;;;;;;;5022044;28;20201;-75
2020/12/26 12:20:00;;;;;;;0.27;0.27;;;;;;;;;;5025313;28;20211;-75
2020/12/26 12:22:27;;;;;;;0.30;0.30;;;;;;;;;;4999297;28;20198;-75
2020/12/26 12:24:53;;;;;;;0.30;0.30;;;;;;;;;;5007962;28;20252;-74
2020/12/26 12:27:20;;;;;;;0.30;0.30;;;;;;;;;;4999842;28;20459;-68
2020/12/26 12:29:46;;;;;;;0.30;0.30;;;;;;;;;;4993863;28;20201;-67
2020/12/26 12:32:14;;;;;;;0.30;0.30;;;;;;;;;;5018462;28;20425;-66
2020/12/26 12:34:42;;;;;;;0.30;0.30;;;;;;;;;;5024651;28;20427;-66
2020/12/26 12:37:09;;;;;;;0.23;0.23;;;;;;;;;;5011544;28;20488;-69
2020/12/26 12:39:35;;;;;;;0.30;0.30;;;;;;;;;;5016557;28;20213;-74
2020/12/26 12:42:02;;;;;;;0.60;0.60;;;;;;;;;;4995825;28;20535;-73
2020/12/26 12:44:29;;;;;;;0.20;0.20;;;;;;;;;;5012758;28;20265;-75
2020/12/26 12:46:55;;;;;;;0.20;0.20;;;;;;;;;;5006109;28;20277;-74
2020/12/26 12:49:22;;;;;;;1.20;1.20;;;;;;;;;;5010435;28;20197;-74
2020/12/26 12:51:49;;;;;;;0.23;0.23;;;;;;;;;;5009059;28;20373;-74
2020/12/26 12:54:17;;;;;;;0.30;0.30;;;;;;;;;;5011803;28;20244;-75
2020/12/26 12:56:43;;;;;;;0.20;0.20;;;;;;;;;;5014259;28;20212;-73
2020/12/26 12:59:10;;;;;;;0.20;0.20;;;;;;;;;;5015038;28;20205;-75
2020/12/26 13:01:36;;;;;;;0.27;0.27;;;;;;;;;;5008519;28;20213;-77
2020/12/26 13:04:02;;;;;;;0.30;0.30;;;;;;;;;;5012487;28;20217;-76
2020/12/26 13:06:29;;;;;;;1.00;0.73;;;;;;;;;;5018263;28;20275;-76
2020/12/26 13:08:56;;;;;;;0.20;0.20;;;;;;;;;;4999182;28;20476;-76
2020/12/26 13:11:23;;;;;;;0.27;0.27;;;;;;;;;;5009836;28;20233;-76
2020/12/26 13:13:49;;;;;;;0.20;0.20;;;;;;;;;;5000525;28;20229;-78
2020/12/26 13:16:22;;;;;;;0.20;0.20;;;;;;;;;;5012074;28;20279;-77
2020/12/26 13:18:48;;;;;;;0.30;0.30;;;;;;;;;;5006799;28;20459;-77
2020/12/26 13:21:18;;;;;;;0.30;0.30;;;;;;;;;;5002547;28;20228;-78
2020/12/26 13:23:44;;;;;;;0.30;0.30;;;;;;;;;;5011252;28;20421;-77
2020/12/26 13:26:11;;;;;;;0.30;0.30;;;;;;;;;;5016505;28;20232;-78
2020/12/26 13:28:38;;;;;;;1.27;1.27;;;;;;;;;;5009802;28;20252;-76
2020/12/26 13:31:05;;;;;;;0.40;0.40;;;;;;;;;;5021924;28;20208;-77
2020/12/26 13:33:31;;;;;;;0.50;0.50;;;;;;;;;;5011165;28;20233;-76
2020/12/26 13:35:58;;;;;;;0.30;0.30;;;;;;;;;;5000076;28;20197;-77
2020/12/26 13:38:24;;;;;;;1.90;1.80;;;;;;;;;;5017192;28;20278;-76
2020/12/26 13:40:51;;;;;;;0.20;0.20;;;;;;;;;;5013793;28;20205;-75
2020/12/26 13:43:18;;;;;;;0.23;0.23;;;;;;;;;;5003737;28;21396;-76
2020/12/26 13:45:45;;;;;;;0.30;0.30;;;;;;;;;;5012478;28;20236;-75
2020/12/26 13:48:11;;;;;;;0.30;0.30;;;;;;;;;;5001491;28;20501;-76
2020/12/26 13:50:37;;;;;;;0.30;0.30;;;;;;;;;;5020986;28;20206;-75
2020/12/26 13:53:04;;;;;;;0.30;0.30;;;;;;;;;;5015862;28;20206;-77
2020/12/26 13:55:30;;;;;;;0.20;0.20;;;;;;;;;;5006217;28;20198;-76
2020/12/26 13:57:56;;;;;;;0.20;0.20;;;;;;;;;;5031592;28;20204;-77
2020/12/26 14:00:24;;;;;;;1.23;1.07;;;;;;;;;;5022737;28;20202;-76
2020/12/26 14:02:50;;;;;;;0.30;0.30;;;;;;;;;;5000546;28;20237;-76
2020/12/26 14:05:17;;;;;;;0.20;0.20;;;;;;;;;;5016098;28;20540;-76
2020/12/26 14:07:43;;;;;;;0.20;0.20;;;;;;;;;;5023239;28;20251;-75
2020/12/26 14:10:10;;;;;;;0.77;0.77;;;;;;;;;;5022625;28;20224;-75
2020/12/26 14:12:36;;;;;;;0.77;0.77;;;;;;;;;;5017598;28;20201;-76
2020/12/26 14:15:03;;;;;;;0.30;0.30;;;;;;;;;;5023648;28;20193;-76
2020/12/26 14:17:30;;;;;;;1.13;1.13;;;;;;;;;;5013904;28;20288;-76
2020/12/26 14:19:56;;;;;;;0.40;0.40;;;;;;;;;;5002527;28;20286;-76
2020/12/26 14:22:23;;;;;;;0.53;0.53;;;;;;;;;;5001052;28;20232;-77
2020/12/26 14:24:49;;;;;;;0.43;0.43;;;;;;;;;;5019222;28;20217;-76
2020/12/26 14:27:16;;;;;;;0.30;0.30;;;;;;;;;;5016101;28;20236;-76
2020/12/26 14:29:41;;;;;;;0.20;0.20;;;;;;;;;;5018420;28;20205;-77
2020/12/26 14:32:08;;;;;;;0.20;0.20;;;;;;;;;;5021076;28;20201;-76
2020/12/26 14:34:35;;;;;;;0.30;0.30;;;;;;;;;;5001824;28;20225;-75
2020/12/26 14:37:02;;;;;;;0.23;0.23;;;;;;;;;;5022437;28;20377;-75
2020/12/26 14:39:29;;;;;;;0.87;0.87;;;;;;;;;;5022029;28;20205;-75
2020/12/26 14:42:00;;;;;;;0.33;0.33;;;;;;;;;;5023157;28;20259;-74
2020/12/26 14:44:26;;;;;;;0.20;0.20;;;;;;;;;;5025250;28;20324;-77